Windham, NY

6:59 AM EDT on August 31, 2015 (GMT -0400)
Townhouse at Base of Windham Mountain Resort | | Change Station
CLOSE
Current Station
Personal Weather Station
Location: Windham, NY
Elevation: 1640 ft
Nearby Weather Stations

Elev 1640 ft 42.30 °N, 74.26 °W | Updated 1 minute ago

Partly Cloudy
Partly Cloudy
57.7 °F
Feels Like 57.7 °F
N
0.0
Wind Variable Wind from South

Today
High -- | Low -- °F
--% Chance of Precip.
Yesterday
High -- | Low -- °F
Precip. -- in
6:21 AM 7:33 PM
Waning Gibbous, 96% visible
Pressure 30.01 in
Visibility 2.5 miles
Clouds Few 8000 ft
Few 26000 ft
Dew Point 57 °F
Humidity 96%
Rainfall 0.00 in
Snow Depth Not available.
UV 0 out of 12
Pollen 9.20 out of 12
Air Quality Not available.
Flu Activity Not available.
METAR KALB 311051Z 00000KT 2 1/2SM R01/1200VP6000FT MIFG BR FEW080 FEW260 18/17 A3001 RMK AO2 SLP161 VIS 2V3 MIFG N AND S-SW T01830172 $
Pressure 30.01 in
Visibility 2.5 miles
Clouds Few 8000 ft
Few 26000 ft
Dew Point 57 °F
Humidity 96%
Rainfall 0.00 in
Snow Depth Not available.
UV 0 out of 12
Pollen 9.20 out of 12
Air Quality Not available.
Flu Activity Not available.
METAR KALB 311051Z 00000KT 2 1/2SM R01/1200VP6000FT MIFG BR FEW080 FEW260 18/17 A3001 RMK AO2 SLP161 VIS 2V3 MIFG N AND S-SW T01830172 $

10-Day Weather Forecast

×

Almanac

Astronomy

Aug. 31, 2015 Rise Set
Actual Time
Civil Twilight
Nautical Twilight
Astronomical Twilight
Moon
Length of Visible Light
Length of Day
Tomorrow will be .
, % of the Moon is Illuminated

Today's Extremes

State Highs State Lows

Community

WunderPhotos

Upload Photos

1,851,227 photos uploaded!

WunderBlogs® & News

Nearby

Air Quality

  Air Quality AQ Index Pollutant
Not available.

Snow Depth

Station Depth Elevation

Earthquake Activity

City Distance Mag. Time & Date
Minimum magnitude displayed is 2.5.

Coastal Water Temperatures

Place Temperature

Stations

Nearby Weather Stations

Station Location Temp. Windchill Dew Point Humidity Wind Precip. Elev Updated Type